Time;durP1;ratioP1;P1;durP2;ratioP2;P2;SDS_P1;SDS_P2;PMS_P1;PMS_P2;Temp;Humidity;BMP_temperature;BMP_pressure;BME280_temperature;BME280_humidity;BME280_pressure;Samples;Min_cycle;Max_cycle;Signal;HPM_P1;HPM_P2
2020/12/31 00:00:36;;;;;;;19.80;10.55;;;3.50;99.90;;;;;;5033189;28;20057;-81
2020/12/31 00:03:01;;;;;;;18.17;10.60;;;3.50;99.90;;;;;;5015930;28;20042;-79
2020/12/31 00:05:27;;;;;;;16.20;9.95;;;3.60;99.90;;;;;;5012579;28;20037;-79
2020/12/31 00:07:53;;;;;;;19.23;10.73;;;3.60;99.90;;;;;;5033737;28;20042;-80
2020/12/31 00:10:19;;;;;;;19.20;10.48;;;3.70;99.90;;;;;;5026750;28;20068;-79
2020/12/31 00:12:44;;;;;;;18.25;10.45;;;3.70;99.90;;;;;;5033373;28;20042;-79
2020/12/31 00:15:10;;;;;;;17.20;9.80;;;3.60;99.90;;;;;;5027076;28;20167;-77
2020/12/31 00:17:36;;;;;;;18.35;9.88;;;3.70;99.90;;;;;;5029986;28;20132;-79
2020/12/31 00:20:03;;;;;;;19.05;9.40;;;3.70;99.90;;;;;;5029015;28;20038;-80
2020/12/31 00:22:28;;;;;;;15.05;9.07;;;3.70;99.90;;;;;;5027180;28;20045;-79
2020/12/31 00:24:54;;;;;;;17.17;9.23;;;3.70;99.90;;;;;;4996773;28;20049;-80
2020/12/31 00:27:19;;;;;;;16.15;9.13;;;3.70;99.90;;;;;;5011854;28;20141;-79
2020/12/31 00:29:47;;;;;;;17.02;9.32;;;3.70;99.90;;;;;;5024359;28;20048;-79
2020/12/31 00:32:13;;;;;;;13.02;8.75;;;3.70;99.90;;;;;;5027027;28;20517;-80
2020/12/31 00:34:40;;;;;;;14.23;8.18;;;3.80;99.90;;;;;;5015045;28;20037;-79
2020/12/31 00:37:06;;;;;;;13.65;7.90;;;3.80;99.90;;;;;;5011471;28;20034;-81
2020/12/31 00:39:31;;;;;;;13.32;8.23;;;4.00;99.90;;;;;;5026868;28;20044;-82
2020/12/31 00:41:57;;;;;;;15.02;9.10;;;3.90;99.90;;;;;;5022552;28;20112;-79
2020/12/31 00:44:24;;;;;;;14.05;8.40;;;3.90;99.90;;;;;;5029859;28;20045;-79
2020/12/31 00:46:50;;;;;;;14.95;8.77;;;3.90;99.90;;;;;;5024128;28;20041;-79
2020/12/31 00:49:15;;;;;;;14.73;8.88;;;3.80;99.90;;;;;;5028862;28;20046;-79
2020/12/31 00:51:41;;;;;;;18.20;9.38;;;3.80;99.90;;;;;;5021140;28;20136;-78
2020/12/31 00:54:07;;;;;;;15.70;8.98;;;3.50;99.90;;;;;;5029503;28;20359;-79
2020/12/31 00:56:32;;;;;;;19.23;9.70;;;3.70;99.90;;;;;;5030612;28;20086;-80
2020/12/31 00:58:58;;;;;;;13.70;7.93;;;3.70;99.90;;;;;;5033490;28;20094;-82
2020/12/31 01:01:26;;;;;;;14.15;9.00;;;3.70;99.90;;;;;;5029348;28;20050;-79
2020/12/31 01:03:52;;;;;;;15.50;8.98;;;3.80;99.90;;;;;;5033984;28;20052;-79
2020/12/31 01:06:17;;;;;;;14.43;8.50;;;3.70;99.90;;;;;;5034289;28;20037;-79
2020/12/31 01:08:43;;;;;;;17.20;9.77;;;3.60;99.90;;;;;;5033089;28;20454;-78
2020/12/31 01:11:08;;;;;;;16.58;8.68;;;3.60;99.90;;;;;;5031224;28;20057;-78
2020/12/31 01:13:34;;;;;;;14.65;9.00;;;3.60;99.90;;;;;;5028563;28;20380;-78
2020/12/31 01:16:00;;;;;;;15.15;9.20;;;3.50;99.90;;;;;;5029509;28;20502;-79
2020/12/31 01:18:25;;;;;;;16.00;9.75;;;3.50;99.90;;;;;;5010678;28;20073;-82
2020/12/31 01:20:51;;;;;;;14.95;9.20;;;3.50;99.90;;;;;;5031158;28;20037;-79
2020/12/31 01:23:16;;;;;;;16.38;9.00;;;3.40;99.90;;;;;;5027995;28;20061;-82
2020/12/31 01:25:42;;;;;;;16.92;9.40;;;3.40;99.90;;;;;;5027932;28;20052;-78
2020/12/31 01:28:07;;;;;;;15.88;9.25;;;3.40;99.90;;;;;;5027993;28;20045;-80
2020/12/31 01:30:33;;;;;;;16.50;9.98;;;3.40;99.90;;;;;;5030956;28;20103;-79
2020/12/31 01:32:59;;;;;;;17.85;9.40;;;3.40;99.90;;;;;;5025779;28;20096;-80
2020/12/31 01:35:25;;;;;;;16.80;9.80;;;3.40;99.90;;;;;;5028011;28;20083;-78
2020/12/31 01:37:50;;;;;;;17.95;9.60;;;3.40;99.90;;;;;;5013404;28;20040;-80
2020/12/31 01:40:16;;;;;;;16.35;9.27;;;3.40;99.90;;;;;;5023288;28;20052;-79
2020/12/31 01:42:42;;;;;;;15.23;9.38;;;3.40;99.90;;;;;;5035772;28;20041;-80
2020/12/31 01:45:08;;;;;;;17.17;9.70;;;3.40;99.90;;;;;;5029529;28;20029;-79
2020/12/31 01:47:35;;;;;;;17.65;10.40;;;3.30;99.90;;;;;;5026048;28;20064;-79
2020/12/31 01:50:01;;;;;;;19.13;9.55;;;3.30;99.90;;;;;;5028353;28;20041;-79
2020/12/31 01:52:28;;;;;;;17.42;10.15;;;3.30;99.90;;;;;;5029528;28;20068;-79
2020/12/31 01:54:54;;;;;;;16.88;9.60;;;3.30;99.90;;;;;;5029536;28;20029;-80
2020/12/31 01:57:20;;;;;;;18.83;9.25;;;3.30;99.90;;;;;;5026762;28;20091;-79
2020/12/31 01:59:46;;;;;;;16.52;9.27;;;3.30;99.90;;;;;;5029881;28;20454;-80
2020/12/31 02:02:11;;;;;;;16.40;9.40;;;3.30;99.90;;;;;;5023758;28;20026;-82
2020/12/31 02:04:39;;;;;;;16.48;9.57;;;3.20;99.90;;;;;;5026690;28;20482;-81
2020/12/31 02:07:06;;;;;;;14.73;8.63;;;3.30;99.90;;;;;;5023715;28;20040;-82
2020/12/31 02:09:32;;;;;;;17.83;9.93;;;3.30;99.90;;;;;;5024659;28;20029;-79
2020/12/31 02:12:05;;;;;;;14.70;9.30;;;3.40;99.90;;;;;;5026752;28;20043;-81
2020/12/31 02:14:31;;;;;;;13.32;8.15;;;3.40;99.90;;;;;;5027715;28;20072;-79
2020/12/31 02:16:58;;;;;;;14.32;8.65;;;3.50;99.90;;;;;;5027553;28;20029;-80
2020/12/31 02:19:24;;;;;;;16.08;8.93;;;3.50;99.90;;;;;;5027662;28;20026;-80
2020/12/31 02:21:50;;;;;;;13.88;8.70;;;3.50;99.90;;;;;;5026226;28;20075;-79
2020/12/31 02:24:18;;;;;;;14.20;8.85;;;3.40;99.90;;;;;;5027585;28;20053;-82
2020/12/31 02:26:46;;;;;;;13.27;8.18;;;3.40;99.90;;;;;;5027088;28;20325;-79
2020/12/31 02:29:13;;;;;;;14.15;7.95;;;3.40;99.90;;;;;;5025325;28;20038;-81
2020/12/31 02:31:40;;;;;;;14.75;8.32;;;3.40;99.90;;;;;;5039923;28;20041;-80
2020/12/31 02:34:07;;;;;;;15.93;8.93;;;3.40;99.90;;;;;;5028810;28;20524;-79
2020/12/31 02:36:34;;;;;;;15.88;8.82;;;3.40;99.90;;;;;;5029528;28;20033;-78
2020/12/31 02:39:02;;;;;;;13.95;8.90;;;3.40;99.90;;;;;;5028929;28;20488;-79
2020/12/31 02:41:28;;;;;;;15.43;9.52;;;3.30;99.90;;;;;;5026517;28;20033;-78
2020/12/31 02:43:54;;;;;;;14.10;8.55;;;3.40;99.90;;;;;;5027574;28;20045;-78
2020/12/31 02:46:20;;;;;;;15.52;8.43;;;3.30;99.90;;;;;;5028905;28;20091;-79
2020/12/31 02:48:47;;;;;;;14.70;8.65;;;3.30;99.90;;;;;;5020530;28;20665;-79
2020/12/31 02:51:12;;;;;;;17.23;8.32;;;3.40;99.90;;;;;;5025774;28;20069;-79
2020/12/31 02:53:39;;;;;;;16.35;9.15;;;3.30;99.90;;;;;;5041930;28;20518;-81
2020/12/31 02:56:12;;;;;;;14.63;8.55;;;3.30;99.90;;;;;;5029133;28;20040;-80
2020/12/31 02:58:39;;;;;;;16.25;9.43;;;3.30;99.90;;;;;;5032464;28;20424;-78
2020/12/31 03:01:06;;;;;;;16.45;8.30;;;3.20;99.90;;;;;;5029778;28;20125;-80
2020/12/31 03:03:31;;;;;;;14.25;8.70;;;3.20;99.90;;;;;;5029807;28;20025;-79
2020/12/31 03:05:57;;;;;;;15.93;9.05;;;3.10;99.90;;;;;;5034561;28;20036;-79
2020/12/31 03:08:23;;;;;;;14.15;8.00;;;3.10;99.90;;;;;;5034493;28;20040;-78
2020/12/31 03:10:50;;;;;;;14.93;8.50;;;3.10;99.90;;;;;;5027977;28;20049;-81
2020/12/31 03:13:16;;;;;;;20.35;8.65;;;3.10;99.90;;;;;;5032913;28;20038;-79
2020/12/31 03:15:42;;;;;;;14.95;8.40;;;3.10;99.90;;;;;;5034513;28;20395;-78
2020/12/31 03:18:07;;;;;;;12.70;7.65;;;3.10;99.90;;;;;;5015366;28;20514;-78
2020/12/31 03:20:33;;;;;;;11.65;7.00;;;3.10;99.90;;;;;;5028239;28;20506;-77
2020/12/31 03:22:59;;;;;;;11.93;8.27;;;3.10;99.90;;;;;;5033062;28;20116;-79
2020/12/31 03:25:24;;;;;;;14.30;8.00;;;3.20;99.90;;;;;;5031998;28;20052;-79
2020/12/31 03:27:50;;;;;;;14.02;8.07;;;3.10;99.90;;;;;;5029759;28;20076;-82
2020/12/31 03:30:16;;;;;;;13.18;7.43;;;3.10;99.90;;;;;;5032443;28;20037;-81
2020/12/31 03:32:41;;;;;;;14.65;7.95;;;3.20;99.90;;;;;;5035827;28;20035;-78
2020/12/31 03:35:07;;;;;;;11.10;7.30;;;3.20;99.90;;;;;;5004509;28;20055;-81
2020/12/31 03:37:32;;;;;;;12.88;7.20;;;3.20;99.90;;;;;;5011206;28;20052;-80
2020/12/31 03:39:58;;;;;;;13.35;7.30;;;3.20;99.90;;;;;;5028005;28;20040;-78
2020/12/31 03:42:24;;;;;;;12.02;7.25;;;3.20;99.90;;;;;;5030365;28;20037;-78
2020/12/31 03:44:49;;;;;;;15.35;7.70;;;3.20;99.90;;;;;;5023300;28;20527;-78
2020/12/31 03:47:15;;;;;;;13.93;7.50;;;3.20;99.90;;;;;;5028550;28;20423;-79
2020/12/31 03:49:41;;;;;;;12.82;7.57;;;3.20;99.90;;;;;;5032988;28;20025;-78
2020/12/31 03:52:06;;;;;;;11.65;7.05;;;3.20;99.90;;;;;;5027668;28;20554;-80
2020/12/31 03:54:32;;;;;;;12.65;6.97;;;3.30;99.90;;;;;;5024212;28;20036;-80
2020/12/31 03:56:57;;;;;;;12.77;6.60;;;3.30;99.90;;;;;;5029208;28;20048;-78
2020/12/31 03:59:23;;;;;;;13.27;7.32;;;3.30;99.90;;;;;;5023025;28;20441;-79
2020/12/31 04:01:48;;;;;;;12.50;7.65;;;3.30;99.90;;;;;;5024498;28;20407;-79
2020/12/31 04:04:14;;;;;;;12.55;6.95;;;3.30;99.90;;;;;;5030868;28;20029;-79
2020/12/31 04:06:40;;;;;;;12.73;6.97;;;3.20;99.90;;;;;;5018874;28;20045;-79
2020/12/31 04:09:05;;;;;;;10.75;6.40;;;3.20;99.90;;;;;;5006058;28;20481;-78
2020/12/31 04:11:31;;;;;;;10.90;7.25;;;3.20;99.90;;;;;;5026101;28;20033;-79
2020/12/31 04:13:57;;;;;;;10.90;6.80;;;3.10;99.90;;;;;;5029340;28;20049;-79
2020/12/31 04:16:22;;;;;;;12.70;7.30;;;3.20;99.90;;;;;;5028502;28;20033;-77
2020/12/31 04:18:48;;;;;;;12.40;6.88;;;3.10;99.90;;;;;;5028173;28;20518;-77
2020/12/31 04:21:13;;;;;;;11.23;7.35;;;3.10;99.90;;;;;;5026387;28;20068;-79
2020/12/31 04:23:39;;;;;;;13.30;7.82;;;3.10;99.90;;;;;;5024044;28;20045;-79
2020/12/31 04:26:08;;;;;;;11.98;7.35;;;3.10;99.90;;;;;;5024758;28;20117;-79
2020/12/31 04:28:34;;;;;;;11.35;6.72;;;3.10;99.90;;;;;;5027998;28;20042;-79
2020/12/31 04:30:59;;;;;;;13.15;7.53;;;3.10;99.90;;;;;;5028374;28;20053;-78
2020/12/31 04:33:25;;;;;;;15.38;7.28;;;3.10;99.90;;;;;;5028974;28;20037;-80
2020/12/31 04:35:50;;;;;;;11.20;6.53;;;3.10;99.90;;;;;;5028600;28;20044;-78
2020/12/31 04:38:16;;;;;;;11.15;7.10;;;3.10;99.90;;;;;;5026882;28;20046;-80
2020/12/31 04:40:44;;;;;;;10.93;6.75;;;3.20;99.90;;;;;;5033653;28;20045;-78
2020/12/31 04:43:10;;;;;;;10.48;6.68;;;3.20;99.90;;;;;;5029424;28;20033;-79
2020/12/31 04:45:39;;;;;;;10.27;6.32;;;3.20;99.90;;;;;;5024835;28;20503;-77
2020/12/31 04:48:24;;;;;;;11.50;6.32;;;3.20;99.90;;;;;;5020884;28;20103;-80
2020/12/31 04:50:53;;;;;;;11.63;6.93;;;3.20;99.90;;;;;;5035898;28;20132;-79
2020/12/31 04:53:18;;;;;;;13.18;7.32;;;3.30;99.90;;;;;;5028931;28;20506;-78
2020/12/31 04:55:45;;;;;;;12.80;6.78;;;3.20;99.90;;;;;;5027434;28;20120;-78
2020/12/31 04:58:12;;;;;;;11.77;6.80;;;3.30;99.90;;;;;;5029215;28;20071;-78
2020/12/31 05:00:40;;;;;;;10.98;5.82;;;3.20;99.90;;;;;;5031113;28;20069;-78
2020/12/31 05:03:06;;;;;;;10.43;6.80;;;3.30;99.90;;;;;;5023447;28;20040;-79
2020/12/31 05:05:32;;;;;;;13.25;7.05;;;3.20;99.90;;;;;;5025490;28;20071;-78
2020/12/31 05:07:59;;;;;;;13.40;6.65;;;3.10;99.90;;;;;;5027612;28;20052;-78
2020/12/31 05:10:25;;;;;;;13.40;7.32;;;3.10;99.90;;;;;;5025300;28;20120;-79
2020/12/31 05:13:07;;;;;;;12.00;6.65;;;3.10;99.90;;;;;;5026359;28;20488;-79
2020/12/31 05:15:32;;;;;;;11.50;7.22;;;3.10;99.90;;;;;;5023197;28;20041;-80
2020/12/31 05:17:58;;;;;;;11.70;6.88;;;3.10;99.90;;;;;;5026339;28;20563;-80
2020/12/31 05:20:30;;;;;;;13.15;7.22;;;3.10;99.90;;;;;;5023265;28;20124;-83
2020/12/31 05:23:10;;;;;;;11.70;7.50;;;3.00;99.90;;;;;;5022069;28;20041;-79
2020/12/31 05:25:35;;;;;;;14.68;6.35;;;3.00;99.90;;;;;;5022920;28;20040;-80
2020/12/31 05:28:01;;;;;;;12.70;6.95;;;3.00;99.90;;;;;;5035879;28;20418;-78
2020/12/31 05:30:29;;;;;;;14.00;7.43;;;3.00;99.90;;;;;;5022216;28;20103;-79
2020/12/31 05:33:03;;;;;;;12.05;7.28;;;3.00;99.90;;;;;;5038349;28;20049;-78
2020/12/31 05:35:29;;;;;;;11.93;7.80;;;3.00;99.90;;;;;;5026001;28;20226;-79
2020/12/31 05:37:55;;;;;;;12.95;7.50;;;3.00;99.90;;;;;;5025010;28;20080;-80
2020/12/31 05:40:20;;;;;;;11.15;7.10;;;3.00;99.90;;;;;;5026598;28;20049;-83
2020/12/31 05:42:46;;;;;;;12.02;7.13;;;2.90;99.90;;;;;;5026152;28;20068;-80
2020/12/31 05:45:18;;;;;;;10.80;7.03;;;2.90;99.90;;;;;;5025233;28;20040;-79
2020/12/31 05:47:49;;;;;;;13.38;7.60;;;2.80;99.90;;;;;;5020830;28;20037;-79
2020/12/31 05:50:19;;;;;;;13.35;7.63;;;2.70;99.90;;;;;;5017354;28;20046;-78
2020/12/31 05:52:45;;;;;;;11.75;7.25;;;2.60;99.90;;;;;;5021133;28;20030;-81
2020/12/31 05:55:11;;;;;;;12.07;6.57;;;2.70;99.90;;;;;;5025761;28;20022;-80
2020/12/31 05:57:44;;;;;;;10.05;6.40;;;2.60;99.90;;;;;;5027441;28;20034;-79
2020/12/31 06:00:24;;;;;;;13.02;7.30;;;2.70;99.90;;;;;;5026805;28;20030;-79
2020/12/31 06:02:54;;;;;;;9.70;6.43;;;2.60;99.90;;;;;;5009492;28;20037;-77
2020/12/31 06:05:20;;;;;;;12.05;7.65;;;2.50;99.90;;;;;;5026648;28;20026;-79
2020/12/31 06:07:55;;;;;;;12.48;7.03;;;2.40;99.90;;;;;;5027789;28;20026;-79
2020/12/31 06:10:30;;;;;;;11.25;6.78;;;2.40;99.90;;;;;;5026453;28;20486;-78
2020/12/31 06:12:56;;;;;;;13.48;7.20;;;2.40;99.90;;;;;;5043296;28;20029;-80
2020/12/31 06:15:33;;;;;;;12.05;6.75;;;2.40;99.90;;;;;;5027876;28;20147;-81
2020/12/31 06:18:01;;;;;;;13.52;6.93;;;2.40;99.90;;;;;;5023698;28;20132;-79
2020/12/31 06:20:29;;;;;;;14.10;7.22;;;2.40;99.90;;;;;;5029383;28;20654;-83
2020/12/31 06:22:58;;;;;;;9.32;5.95;;;2.40;99.90;;;;;;5027178;28;20095;-80
2020/12/31 06:25:46;;;;;;;10.80;6.68;;;2.40;99.90;;;;;;5032253;28;20025;-79
2020/12/31 06:28:20;;;;;;;9.98;6.50;;;2.50;99.90;;;;;;5030288;28;20049;-79
2020/12/31 06:30:47;;;;;;;10.07;5.88;;;2.40;99.90;;;;;;5026514;28;20148;-80
2020/12/31 06:33:22;;;;;;;10.30;6.60;;;2.40;99.90;;;;;;5030801;28;20053;-79
2020/12/31 06:35:53;;;;;;;10.00;6.07;;;2.50;99.90;;;;;;5041841;28;20060;-79
2020/12/31 06:38:38;;;;;;;10.82;5.88;;;2.50;99.90;;;;;;5032722;28;20042;-81
2020/12/31 06:41:06;;;;;;;8.63;5.53;;;2.50;99.90;;;;;;5035477;28;20430;-80
2020/12/31 06:43:32;;;;;;;8.57;5.30;;;2.50;99.90;;;;;;5028844;28;20025;-79
2020/12/31 06:45:58;;;;;;;10.02;5.30;;;2.50;99.90;;;;;;5031070;28;20041;-80
2020/12/31 06:48:27;;;;;;;8.60;5.65;;;2.50;99.90;;;;;;5028510;28;20046;-79
2020/12/31 06:50:59;;;;;;;8.95;5.35;;;2.50;99.90;;;;;;5026615;28;20033;-80
2020/12/31 06:53:32;;;;;;;12.10;6.05;;;2.50;99.90;;;;;;5032183;28;20018;-78
2020/12/31 06:56:06;;;;;;;10.02;5.60;;;2.50;99.90;;;;;;5019706;28;20061;-79
2020/12/31 06:58:32;;;;;;;9.50;5.07;;;2.60;99.90;;;;;;5027882;28;20102;-79
2020/12/31 07:00:59;;;;;;;7.78;4.88;;;2.50;99.90;;;;;;5029743;28;20120;-79
2020/12/31 07:03:40;;;;;;;7.05;4.75;;;2.50;99.90;;;;;;5027742;28;20041;-79
2020/12/31 07:06:39;;;;;;;11.73;5.15;;;2.60;99.90;;;;;;5020050;28;20041;-77
2020/12/31 07:09:28;;;;;;;8.70;5.22;;;2.60;99.90;;;;;;5016194;28;20045;-79
2020/12/31 07:11:59;;;;;;;7.72;4.75;;;2.60;99.90;;;;;;5021421;28;20045;-78
2020/12/31 07:14:27;;;;;;;6.63;4.32;;;2.60;99.90;;;;;;5029619;28;20044;-77
2020/12/31 07:17:09;;;;;;;9.35;5.65;;;2.60;99.90;;;;;;5025828;28;20034;-77
2020/12/31 07:19:43;;;;;;;7.53;4.55;;;2.50;99.90;;;;;;5025830;28;20037;-80
2020/12/31 07:22:22;;;;;;;9.93;5.60;;;2.50;99.90;;;;;;5036415;28;20045;-78
2020/12/31 07:24:50;;;;;;;8.77;5.00;;;2.50;99.90;;;;;;5026629;28;20056;-79
2020/12/31 07:27:33;;;;;;;10.48;6.32;;;2.40;99.90;;;;;;5027155;28;20556;-78
2020/12/31 07:30:08;;;;;;;6.65;3.88;;;2.40;99.90;;;;;;5030484;28;20034;-78
2020/12/31 07:32:56;;;;;;;8.18;4.78;;;2.40;99.90;;;;;;5033236;28;20037;-76
2020/12/31 07:35:27;;;;;;;8.27;4.85;;;2.40;99.90;;;;;;5031821;28;20041;-78
2020/12/31 07:37:55;;;;;;;10.75;4.93;;;2.40;99.90;;;;;;5031389;28;20463;-79
2020/12/31 07:40:28;;;;;;;9.88;4.72;;;2.40;99.90;;;;;;5035964;28;20119;-78
2020/12/31 07:42:53;;;;;;;8.48;4.80;;;2.40;99.90;;;;;;5020377;28;20068;-78
2020/12/31 07:45:19;;;;;;;8.20;4.72;;;2.40;99.90;;;;;;5028081;28;20061;-77
2020/12/31 07:47:53;;;;;;;7.80;5.00;;;2.30;99.90;;;;;;5033076;28;20085;-77
2020/12/31 07:50:19;;;;;;;7.32;4.50;;;2.40;99.90;;;;;;5030964;28;20038;-77
2020/12/31 07:52:45;;;;;;;9.05;4.82;;;2.40;99.90;;;;;;5024589;28;20033;-79
2020/12/31 07:55:11;;;;;;;8.93;4.55;;;2.40;99.90;;;;;;5031124;28;20407;-78
2020/12/31 07:57:40;;;;;;;8.35;4.60;;;2.40;99.90;;;;;;5036239;28;20108;-79
2020/12/31 08:00:07;;;;;;;7.97;4.82;;;2.40;99.90;;;;;;5031076;28;20469;-77
2020/12/31 08:02:33;;;;;;;9.93;4.57;;;2.40;99.90;;;;;;5027286;28;20033;-78
2020/12/31 08:05:09;;;;;;;7.63;5.05;;;2.40;99.90;;;;;;5034516;28;20025;-78
2020/12/31 08:07:35;;;;;;;8.13;4.95;;;2.50;99.90;;;;;;5028339;28;20045;-78
2020/12/31 08:10:01;;;;;;;9.77;5.40;;;2.40;99.90;;;;;;5022766;28;20132;-78
2020/12/31 08:12:27;;;;;;;8.02;4.40;;;2.30;99.90;;;;;;5038251;28;20030;-78
2020/12/31 08:14:52;;;;;;;7.60;4.63;;;2.30;99.90;;;;;;5012128;28;20148;-78
2020/12/31 08:17:18;;;;;;;8.45;4.97;;;2.20;99.90;;;;;;5022510;28;20120;-82
2020/12/31 08:19:45;;;;;;;9.02;5.15;;;2.30;99.90;;;;;;5036989;28;20056;-78
2020/12/31 08:22:23;;;;;;;9.48;5.10;;;2.40;99.90;;;;;;5028041;28;20077;-78
2020/12/31 08:24:57;;;;;;;7.32;4.18;;;2.40;99.90;;;;;;5032554;28;20133;-78
2020/12/31 08:27:23;;;;;;;9.18;4.45;;;2.40;99.90;;;;;;5032469;28;20399;-79
2020/12/31 08:29:49;;;;;;;9.43;4.93;;;2.40;99.90;;;;;;5031191;28;20073;-78
2020/12/31 08:32:23;;;;;;;8.10;4.68;;;2.40;99.90;;;;;;5029466;28;20045;-78
2020/12/31 08:34:54;;;;;;;7.88;4.50;;;2.40;99.90;;;;;;5028276;28;20041;-78
2020/12/31 08:37:22;;;;;;;8.57;4.60;;;2.40;99.90;;;;;;5037041;28;20068;-77
2020/12/31 08:39:50;;;;;;;6.38;4.28;;;2.40;99.90;;;;;;5036378;28;20048;-78
2020/12/31 08:42:19;;;;;;;8.27;4.53;;;2.40;99.90;;;;;;5032848;28;20036;-78
2020/12/31 08:44:50;;;;;;;8.95;4.18;;;2.40;99.90;;;;;;5034997;28;20029;-80
2020/12/31 08:47:20;;;;;;;8.65;5.40;;;2.40;99.90;;;;;;5022751;28;20183;-78
2020/12/31 08:49:54;;;;;;;8.10;4.32;;;2.40;99.90;;;;;;5031972;28;20040;-79
2020/12/31 08:52:25;;;;;;;9.43;4.65;;;2.40;99.90;;;;;;5033123;28;20057;-79
2020/12/31 08:55:06;;;;;;;;;;;2.30;99.90;;;;;;5023507;28;20037;-80
2020/12/31 08:57:32;;;;;;;10.55;4.70;;;2.40;99.90;;;;;;5022769;28;19930;-77
2020/12/31 08:59:57;;;;;;;7.32;4.40;;;2.30;99.90;;;;;;5020152;28;20037;-78
2020/12/31 09:02:23;;;;;;;7.82;4.30;;;2.30;99.90;;;;;;5027086;28;20040;-79
2020/12/31 09:05:09;;;;;;;9.15;4.60;;;4.60;99.90;;;;;;5028481;28;20068;-78
2020/12/31 09:07:34;;;;;;;9.77;4.55;;;2.30;99.90;;;;;;5024796;28;20048;-77
2020/12/31 09:10:17;;;;;;;6.47;4.40;;;2.30;99.90;;;;;;5007173;28;20418;-78
2020/12/31 09:12:44;;;;;;;8.38;4.57;;;2.40;99.90;;;;;;5025728;28;20041;-78
2020/12/31 09:15:17;;;;;;;8.40;4.40;;;2.40;99.90;;;;;;5029263;28;20498;-79
2020/12/31 09:17:44;;;;;;;7.78;4.50;;;2.40;99.90;;;;;;5025012;28;20561;-77
2020/12/31 09:20:18;;;;;;;6.72;4.30;;;2.40;99.90;;;;;;5030634;28;20120;-79
2020/12/31 09:22:43;;;;;;;9.73;4.28;;;2.40;99.90;;;;;;5027870;28;20022;-82
2020/12/31 09:25:10;;;;;;;6.35;4.25;;;2.40;99.90;;;;;;5027113;28;20091;-79
2020/12/31 09:27:36;;;;;;;7.80;4.40;;;2.40;99.90;;;;;;5025863;28;20450;-79
2020/12/31 09:30:05;;;;;;;7.60;4.03;;;2.40;99.90;;;;;;5025679;28;20034;-78
2020/12/31 09:32:31;;;;;;;7.90;4.00;;;2.40;99.90;;;;;;5028979;28;20403;-79
2020/12/31 09:34:57;;;;;;;11.45;4.68;;;2.50;99.90;;;;;;5021843;28;20038;-82
2020/12/31 09:37:23;;;;;;;11.07;5.22;;;2.50;99.90;;;;;;5025887;28;20040;-79
2020/12/31 09:39:48;;;;;;;11.07;5.32;;;2.50;99.90;;;;;;5016896;28;20034;-79
2020/12/31 09:42:14;;;;;;;9.50;5.85;;;2.50;99.90;;;;;;5022283;28;20132;-79
2020/12/31 09:44:39;;;;;;;9.02;5.35;;;2.50;99.90;;;;;;5025517;28;20091;-78
2020/12/31 09:47:06;;;;;;;8.90;4.68;;;2.50;99.90;;;;;;5031707;28;20045;-79
2020/12/31 09:49:32;;;;;;;8.15;5.15;;;2.50;99.90;;;;;;5023127;28;20099;-79
2020/12/31 09:51:58;;;;;;;8.27;5.45;;;2.60;99.90;;;;;;5027564;28;20045;-77
2020/12/31 09:54:24;;;;;;;9.95;5.57;;;2.60;99.90;;;;;;5026327;28;20037;-80
2020/12/31 09:56:49;;;;;;;8.27;5.10;;;2.60;99.90;;;;;;5026495;28;20495;-79
2020/12/31 09:59:15;;;;;;;9.52;5.13;;;2.70;99.90;;;;;;5026298;28;20041;-81
2020/12/31 10:01:41;;;;;;;10.02;5.28;;;2.70;99.90;;;;;;5027762;28;20044;-80
2020/12/31 10:04:06;;;;;;;10.32;5.35;;;2.60;99.90;;;;;;5029239;28;20034;-80
2020/12/31 10:06:32;;;;;;;8.88;5.30;;;2.50;99.90;;;;;;5027820;28;20124;-78
2020/12/31 10:08:57;;;;;;;8.10;4.85;;;2.50;99.90;;;;;;5045017;28;20049;-80
2020/12/31 10:11:23;;;;;;;9.50;5.32;;;2.50;99.90;;;;;;5021996;28;20056;-77
2020/12/31 10:13:48;;;;;;;6.22;3.85;;;2.40;99.90;;;;;;5026101;28;20029;-79
2020/12/31 10:16:14;;;;;;;6.22;3.97;;;2.40;99.90;;;;;;5037476;28;20041;-78
2020/12/31 10:18:40;;;;;;;6.70;3.90;;;2.40;99.90;;;;;;5023117;28;20038;-79
2020/12/31 10:21:06;;;;;;;7.03;4.28;;;2.40;99.90;;;;;;5021847;28;20040;-79
2020/12/31 10:23:31;;;;;;;6.32;4.10;;;2.40;99.90;;;;;;5042640;28;20037;-81
2020/12/31 10:25:57;;;;;;;8.75;4.00;;;2.40;99.90;;;;;;5027599;28;20034;-79
2020/12/31 10:28:23;;;;;;;5.82;3.92;;;2.40;99.90;;;;;;5035086;28;20079;-79
2020/12/31 10:30:49;;;;;;;5.82;3.63;;;2.50;99.90;;;;;;5026518;28;20125;-78
2020/12/31 10:33:16;;;;;;;4.63;3.00;;;2.50;99.90;;;;;;5027276;28;20487;-79
2020/12/31 10:35:42;;;;;;;5.50;3.53;;;2.50;99.90;;;;;;5026743;28;20032;-79
2020/12/31 10:38:08;;;;;;;5.32;3.55;;;2.50;99.90;;;;;;5031207;28;20495;-81
2020/12/31 10:40:33;;;;;;;6.32;3.83;;;2.60;99.90;;;;;;5032089;28;20045;-79
2020/12/31 10:43:00;;;;;;;5.95;3.42;;;3.20;99.90;;;;;;5028571;28;20049;-79
2020/12/31 10:45:25;;;;;;;5.20;3.50;;;2.60;99.90;;;;;;5023238;28;20038;-79
2020/12/31 10:47:51;;;;;;;5.35;3.22;;;2.60;99.90;;;;;;5024242;28;20033;-81
2020/12/31 10:50:17;;;;;;;6.35;3.60;;;2.60;99.90;;;;;;5010558;28;20128;-78
2020/12/31 10:52:42;;;;;;;6.10;3.30;;;2.70;99.90;;;;;;5011828;28;20383;-78
2020/12/31 10:55:08;;;;;;;5.95;3.38;;;2.70;99.90;;;;;;5026889;28;20037;-78
2020/12/31 10:57:34;;;;;;;4.72;2.10;;;2.70;99.90;;;;;;5027028;28;20053;-81
2020/12/31 11:00:01;;;;;;;5.75;2.83;;;2.80;99.90;;;;;;5027287;28;20037;-79
2020/12/31 11:02:27;;;;;;;5.55;3.20;;;3.00;99.90;;;;;;5017347;28;20096;-79
2020/12/31 11:04:53;;;;;;;5.22;2.78;;;3.00;99.90;;;;;;5030364;28;20034;-81
2020/12/31 11:07:19;;;;;;;4.05;2.60;;;3.00;99.90;;;;;;5008804;28;20042;-79
2020/12/31 11:09:44;;;;;;;4.80;2.65;;;3.10;99.90;;;;;;5023269;28;20458;-78
2020/12/31 11:12:10;;;;;;;4.07;2.63;;;3.10;99.90;;;;;;5008700;28;20084;-80
2020/12/31 11:14:35;;;;;;;4.85;2.67;;;3.20;99.90;;;;;;5022577;28;20037;-83
2020/12/31 11:17:01;;;;;;;5.50;2.85;;;3.10;99.90;;;;;;5028162;28;20044;-84
2020/12/31 11:19:27;;;;;;;4.82;2.70;;;3.10;99.90;;;;;;5009342;28;20048;-78
2020/12/31 11:21:54;;;;;;;5.13;3.20;;;3.00;99.90;;;;;;5026890;28;20610;-82
2020/12/31 11:24:19;;;;;;;5.07;3.17;;;3.10;99.90;;;;;;5015655;28;20045;-79
2020/12/31 11:26:45;;;;;;;3.45;2.40;;;3.10;99.90;;;;;;5011743;28;20103;-77
2020/12/31 11:29:11;;;;;;;4.97;2.90;;;3.00;99.90;;;;;;5045915;28;20119;-80
2020/12/31 11:31:37;;;;;;;4.32;2.70;;;3.10;99.90;;;;;;5034116;28;20063;-77
2020/12/31 11:34:03;;;;;;;4.22;2.53;;;3.20;99.90;;;;;;5034990;28;20491;-79
2020/12/31 11:36:30;;;;;;;4.63;3.03;;;3.20;99.90;;;;;;5029953;28;20523;-80
2020/12/31 11:38:56;;;;;;;5.32;3.00;;;3.20;99.90;;;;;;5035700;28;20033;-80
2020/12/31 11:41:22;;;;;;;6.93;2.70;;;3.30;99.90;;;;;;5034951;28;20040;-82
2020/12/31 11:43:48;;;;;;;7.35;3.50;;;3.30;99.90;;;;;;5032526;28;20109;-78
2020/12/31 11:46:14;;;;;;;3.97;2.60;;;3.30;99.90;;;;;;5032118;28;20038;-79
2020/12/31 11:48:39;;;;;;;3.70;2.58;;;3.40;99.90;;;;;;5032576;28;20592;-80
2020/12/31 11:51:10;;;;;;;5.85;3.22;;;3.40;99.90;;;;;;5031090;28;20614;-80
2020/12/31 11:53:35;;;;;;;5.65;3.10;;;3.40;99.90;;;;;;5031821;28;20549;-79
2020/12/31 11:56:02;;;;;;;5.40;2.80;;;3.50;99.90;;;;;;5035024;28;20042;-80
2020/12/31 11:58:28;;;;;;;5.68;2.30;;;3.50;99.90;;;;;;5049598;28;20673;-79
2020/12/31 12:00:55;;;;;;;5.88;2.95;;;3.60;99.90;;;;;;5034125;28;20116;-79
2020/12/31 12:03:21;;;;;;;6.78;3.20;;;3.60;99.90;;;;;;5034171;28;20514;-78
2020/12/31 12:05:49;;;;;;;5.97;3.20;;;3.50;99.90;;;;;;5035884;28;20122;-80
2020/12/31 12:08:15;;;;;;;5.13;3.47;;;3.50;99.90;;;;;;5032597;28;20057;-80
2020/12/31 12:10:41;;;;;;;7.82;3.25;;;3.50;99.90;;;;;;5024539;28;20042;-81
2020/12/31 12:13:06;;;;;;;7.95;4.53;;;3.40;99.90;;;;;;5044403;28;20037;-79
2020/12/31 12:15:32;;;;;;;5.25;3.15;;;3.40;99.90;;;;;;5018584;28;20046;-78
2020/12/31 12:17:57;;;;;;;6.90;3.10;;;3.40;99.90;;;;;;5027552;28;20042;-79
2020/12/31 12:20:23;;;;;;;5.55;2.88;;;3.40;99.90;;;;;;5034440;28;20046;-83
2020/12/31 12:22:50;;;;;;;4.45;2.92;;;3.50;99.90;;;;;;5028187;28;20057;-80
2020/12/31 12:25:16;;;;;;;5.82;3.13;;;3.50;99.90;;;;;;5016606;28;20038;-78
2020/12/31 12:27:42;;;;;;;6.38;3.47;;;3.50;99.90;;;;;;5029311;28;20050;-80
2020/12/31 12:30:10;;;;;;;9.40;4.13;;;3.60;99.90;;;;;;5033902;28;20037;-79
2020/12/31 12:32:37;;;;;;;6.13;4.15;;;3.50;99.90;;;;;;5032543;28;20082;-82
2020/12/31 12:35:08;;;;;;;5.18;3.60;;;3.60;99.90;;;;;;5028999;28;20144;-79
2020/12/31 12:37:37;;;;;;;7.57;4.65;;;3.60;99.90;;;;;;5035627;28;20525;-81
2020/12/31 12:40:07;;;;;;;10.00;4.80;;;3.60;99.90;;;;;;5028186;28;20060;-77
2020/12/31 12:42:34;;;;;;;6.63;4.40;;;3.60;99.90;;;;;;5027843;28;20029;-78
2020/12/31 12:45:00;;;;;;;6.00;3.88;;;3.60;99.90;;;;;;5029677;28;20103;-77
2020/12/31 12:47:26;;;;;;;5.85;3.33;;;3.60;99.90;;;;;;5046045;28;20041;-78
2020/12/31 12:49:52;;;;;;;6.78;4.20;;;3.60;99.90;;;;;;5016169;28;20600;-76
2020/12/31 12:52:17;;;;;;;7.03;3.90;;;3.60;99.90;;;;;;5034300;28;20034;-83